sim
Sign-in with your pilot id or email,
or register
Callsign
Passwort

Schedule Details

Flight Number: OEO2526
Departure: Munich Airport (EDDM) at 06:05
Arrival: Paris Charles de Gaulle Airport (LFPG) at 07:40

Weather Information
Getting current METAR information for EDDM 251020Z 26005KT 9999 -RA FEW012 SCT020 BKN040 10/08 Q1002 NOSIG
Getting current METAR information for LFPG 251000Z 30013KT 270V330 9999 SCT020 SCT021TCU 11/09 Q1001 TEMPO 30015G25KT 4000 SHRA BKN020TCU

Schedule Frequency

Route Map